Terminal Aerodrome Forecast
Issued by NWS

Home | Current Version | Previous Version | Text Only | Print | Product List | Glossary On
Versions: 1 2 3 4 5 6 7 8 9 10 11 12 13 14 15 16 17 18 19 20
437
FTUS44 KBMX 211139
TAFTOI
TAF
KTOI 211139Z 2112/2212 00000KT 4SM BR SKC
     FM211300 VRB03KT P6SM SCT050
     FM211800 02006KT P6SM VCTS SCT040CB
      TEMPO 2119/2123 TSRA BKN050CB
     FM220300 00000KT P6SM SKC
     FM220800 20002KT 5SM HZ SKC=

USA.gov is the U.S. government's official web portal to all federal, state and local government web resources and services.